Home > Products > Valid Products > TAF

000
FTUS43 KDDC 231100 RRA
TAFGCK
TAF
KGCK 231150Z 2312/2412 16018G28KT P6SM SCT250
     FM231500 20027G37KT P6SM SCT250
     FM232100 20027G37KT P6SM VCTS SCT060CB SCT250
     FM240300 36025G35KT P6SM BKN050=



000
FTUS43 KDDC 231100 RRA
TAFDDC
TAF
KDDC 231150Z 2312/2412 16018G25KT P6SM SCT250
     FM231500 19027G37KT P6SM SCT250
     FM232200 19028G38KT P6SM VCTS SCT060CB SCT250
      TEMPO 2322/2402 5SM TSRA BKN050CB
     FM240400 34020G30KT P6SM BKN040
     FM240600 36018G28KT P6SM OVC040=



000
FTUS43 KDDC 231100 RRA
TAFHYS
TAF
KHYS 231150Z 2312/2412 15018KT P6SM SCT250
     FM231500 19027G37KT P6SM SCT250
     FM232200 18026G36KT P6SM VCTS SCT050CB
      TEMPO 2323/2402 4SM TSRA BKN050CB
     FM240300 36024G34KT P6SM +TSRA OVC010CB
     FM240600 36019G28KT P6SM OVC040=



000
FTUS43 KDDC 230500
TAFGCK
TAF
KGCK 230539Z 2306/2406 16018G28KT P6SM SCT250
     FM231500 20027G37KT P6SM SCT250
     FM232100 20027G37KT P6SM VCTS SCT060CB SCT250
     FM240300 36025G35KT P6SM BKN050=



000
FTUS43 KDDC 230500
TAFHYS
TAF
KHYS 230539Z 2306/2406 15018KT P6SM SCT250
     FM231500 19027G37KT P6SM SCT250
     FM232200 18026G36KT P6SM VCTS SCT050CB
      TEMPO 2323/2402 4SM TSRA BKN050CB
     FM240300 36024G34KT P6SM VCTS BKN050CB=



000
FTUS43 KDDC 230500
TAFDDC
TAF
KDDC 230539Z 2306/2406 16018G25KT P6SM SCT250
     FM231500 19027G37KT P6SM SCT250
     FM232200 19028G38KT P6SM VCTS SCT060CB SCT250
      TEMPO 2322/2402 5SM TSRA BKN050CB
     FM240400 34020G30KT P6SM BKN040=



000
FTUS43 KDDC 230200 AAB
TAFGCK
TAF AMD
KGCK 230224Z 2302/2324 15020G28KT P6SM SCT250
      TEMPO 2302/2303 5SM -TSRA BKN050CB
     FM231400 20027G37KT P6SM SCT250=



000
FTUS43 KDDC 230200 AAA
TAFGCK
TAF AMD
KGCK 230216Z 2302/2324 15020G28KT P6SM SCT250
      TEMPO 2302/2303 5SM -SHRA BKN050
     FM231400 20027G37KT P6SM SCT250=



000
FTUS43 KDDC 222300
TAFHYS
TAF
KHYS 222320Z 2300/2324 16018G25KT P6SM SCT250
     FM231500 19025G35KT P6SM BKN250=



000
FTUS43 KDDC 222300
TAFDDC
TAF
KDDC 222320Z 2300/2324 16018G25KT P6SM SCT250
     FM231600 20028G38KT P6SM SCT250=



000
FTUS43 KDDC 222300
TAFGCK
TAF
KGCK 222320Z 2300/2324 17020G28KT P6SM SCT250
     FM231400 20027G37KT P6SM SCT250=



000
FTUS43 KDDC 222000 AAA
TAFGCK
TAF AMD
KGCK 222045Z 2221/2318 18020G30KT P6SM SCT200
     FM230200 15015G25KT P6SM SCT200
     FM231500 18020G30KT P6SM BKN200=



000
FTUS43 KDDC 221700
TAFHYS
TAF
KHYS 221722Z 2218/2318 16020G30KT P6SM SCT100
     FM230200 15015G25KT P6SM SCT200
     FM230600 16020G30KT P6SM BKN200=



000
FTUS43 KDDC 221700
TAFGCK
TAF
KGCK 221722Z 2218/2318 16020G30KT P6SM SCT200
     FM230200 15015G25KT P6SM SCT200
     FM231500 18020G30KT P6SM BKN200=



000
FTUS43 KDDC 221700
TAFDDC
TAF
KDDC 221722Z 2218/2318 16020G30KT P6SM SCT100
     FM230200 15015G25KT P6SM SCT200
     FM231500 18020G30KT P6SM BKN200=



000
FTUS43 KDDC 221100
TAFGCK
TAF
KGCK 221134Z 2212/2312 VRB06KT P6SM FEW250
     FM221500 16012G22KT P6SM SCT250
     FM221900 17022G32KT P6SM SCT250
     FM230200 15016G26KT P6SM BKN200=



000
FTUS43 KDDC 221100
TAFHYS
TAF
KHYS 221134Z 2212/2312 VRB06KT P6SM FEW250
     FM221700 17017G27KT P6SM SCT250=



000
FTUS43 KDDC 221100
TAFDDC
TAF
KDDC 221134Z 2212/2312 VRB06KT P6SM FEW250
     FM221600 16016G26KT P6SM SCT250=



000
FTUS43 KDDC 220500
TAFGCK
TAF
KGCK 220520Z 2206/2306 VRB06KT P6SM FEW250
     FM221500 16012G22KT P6SM SCT250
     FM221900 17022G32KT P6SM SCT250
     FM230200 15016G26KT P6SM BKN200=



000
FTUS43 KDDC 220500
TAFHYS
TAF
KHYS 220520Z 2206/2306 VRB06KT P6SM FEW250
     FM221700 17017G27KT P6SM SCT250=



000
FTUS43 KDDC 220500
TAFDDC
TAF
KDDC 220520Z 2206/2306 VRB06KT P6SM FEW250
     FM221600 16016G26KT P6SM SCT250=



000
FTUS43 KDDC 212300
TAFGCK
TAF
KGCK 212320Z 2200/2224 03014G18KT P6SM SKC
     FM220200 08008KT P6SM SKC
     FM221500 16016G23KT P6SM SCT200=



000
FTUS43 KDDC 212300
TAFDDC
TAF
KDDC 212320Z 2200/2224 03011KT P6SM SKC
     FM220300 08007KT P6SM SKC
     FM221700 16015G22KT P6SM SCT250=



000
FTUS43 KDDC 212300
TAFHYS
TAF
KHYS 212320Z 2200/2224 01015KT P6SM SKC
     FM220200 07007KT P6SM SKC
     FM221800 17016G23KT P6SM SCT250=



000
FTUS43 KDDC 211900 AAB
TAFDDC
TAF AMD
KDDC 211931Z 2120/2218 01015KT P6SM SCT040
     FM220000 05010KT P6SM SKC=



000
FTUS43 KDDC 211900 AAA
TAFGCK
TAF AMD
KGCK 211931Z 2120/2218 03015KT P6SM SKC
     FM220000 06010KT P6SM SKC=



000
FTUS43 KDDC 211800 AAA
TAFDDC
TAF AMD
KDDC 211859Z 2119/2218 02015G25KT P6SM SCT040
     FM220000 05010KT P6SM SKC=



000
FTUS43 KDDC 211700
TAFGCK
TAF
KGCK 211722Z 2118/2218 03015G25KT P6SM SKC
      TEMPO 2118/2120 BKN015
     FM220000 06010KT P6SM SKC=



000
FTUS43 KDDC 211700
TAFHYS
TAF
KHYS 211722Z 2118/2218 03015G25KT P6SM SKC
     FM220000 04010KT P6SM SKC=



000
FTUS43 KDDC 211700
TAFDDC
TAF
KDDC 211722Z 2118/2218 03015G25KT P6SM SKC
     FM220000 05010KT P6SM SKC=



000
FTUS43 KDDC 211300 AAB
TAFDDC
TAF AMD
KDDC 211328Z 2113/2212 01010KT 2SM BR BKN003
     FM211500 34008KT P6SM SKC
     FM211700 01014G20KT P6SM SCT250
     FM212000 02012G20KT P6SM VCSH SCT050
     FM220000 04008KT P6SM FEW050=



000
FTUS43 KDDC 211300 AAA
TAFHYS
TAF AMD
KHYS 211327Z 2113/2212 06010KT P6SM BKN120
     FM211500 01015G25KT P6SM SCT060
     FM212100 04011KT P6SM SKC=



000
FTUS43 KDDC 211300 AAA
TAFGCK
TAF AMD
KGCK 211310Z 2113/2212 35010KT 5SM BR SCT010
     FM211400 01015G25KT P6SM FEW050
     FM212100 04011KT P6SM SKC=



000
FTUS43 KDDC 211300 AAA
TAFDDC
TAF AMD
KDDC 211309Z 2113/2212 36010KT 2SM BR SCT010
     FM211500 34008KT P6SM SKC
     FM211700 01014G20KT P6SM SCT250
     FM212000 02012G20KT P6SM VCSH SCT050
     FM220000 04008KT P6SM FEW050=



000
FTUS43 KDDC 211100
TAFHYS
TAF
KHYS 211139Z 2112/2212 03016KT P6SM BKN060 OVC110
     FM211400 01014G22KT P6SM SCT060
     FM212100 04011KT P6SM SKC=



000
FTUS43 KDDC 211100
TAFDDC
TAF
KDDC 211139Z 2112/2212 34008KT 3SM BR SCT010
     FM211500 34008KT P6SM SKC
     FM211700 01014G20KT P6SM SCT250
     FM212000 02012G20KT P6SM VCSH SCT050
     FM220000 04008KT P6SM FEW050=



000
FTUS43 KDDC 211100
TAFGCK
TAF
KGCK 211139Z 2112/2212 29006KT 1/2SM FG BKN003
     FM211300 34008KT 1 1/2SM BR SCT010
     FM211400 01015G22KT P6SM FEW050
     FM212100 04011KT P6SM SKC=



000
FTUS43 KDDC 211100 AAB
TAFGCK
TAF AMD
KGCK 211114Z 2111/2206 19008KT P6SM OVC005
      TEMPO 2111/2113 1/4SM FG OVC003
     FM211400 01015G22KT P6SM FEW050
     FM212100 04011KT P6SM SKC=



000
FTUS43 KDDC 210700 AAA
TAFDDC
TAF AMD
KDDC 210744Z 2108/2206 20010KT P6SM BKN009
     FM211300 34008KT P6SM SCT011
     FM211500 01014G20KT P6SM SCT250
     FM212000 02012G20KT P6SM VCSH SCT050
     FM220000 04008KT P6SM FEW050=



000
FTUS43 KDDC 210700 AAA
TAFGCK
TAF AMD
KGCK 210742Z 2108/2206 19008KT P6SM OVC006
     FM211200 35009KT P6SM SCT009
     FM211400 01015G22KT P6SM FEW050
     FM212100 04011KT P6SM SKC=



000
FTUS43 KDDC 210500
TAFHYS
TAF
KHYS 210534Z 2106/2206 VRB06KT P6SM SCT040 BKN060 OVC110
     FM211400 01014G22KT P6SM SCT060
     FM212100 04011KT P6SM SKC=



000
FTUS43 KDDC 210500
TAFGCK
TAF
KGCK 210534Z 2106/2206 VRB06KT P6SM SCT200
      TEMPO 2108/2111 3SM BR
     FM211400 01015G22KT P6SM FEW050
     FM212100 04011KT P6SM SKC=



000
FTUS43 KDDC 210500
TAFDDC
TAF
KDDC 210534Z 2106/2206 17008KT P6SM BKN200
      TEMPO 2110/2113 4SM BR
     FM211400 01014KT P6SM SCT250
     FM212000 02012G20KT P6SM VCSH SCT050
     FM220000 04008KT P6SM FEW050=



000
FTUS43 KDDC 210200 AAB
TAFHYS
TAF AMD
KHYS 210239Z 2103/2124 16013KT P6SM FEW110
     FM210330 14009KT P6SM BKN150
     FM211500 01015G22KT P6SM SCT250=



000
FTUS43 KDDC 210200 AAB
TAFGCK
TAF AMD
KGCK 210238Z 2103/2124 13012KT P6SM SCT110
     FM211500 01015G22KT P6SM SCT250=



000
FTUS43 KDDC 210100 AAB
TAFDDC
TAF AMD
KDDC 210157Z 2102/2124 19008KT P6SM SKC
     FM211500 01015G22KT P6SM SCT250=



000
FTUS43 KDDC 210100 AAA
TAFHYS
TAF AMD
KHYS 210106Z 2101/2124 16017G27KT P6SM VCTS FEW060CB
     FM210330 14009KT P6SM BKN150
     FM211500 01015G22KT P6SM SCT250=



000
FTUS43 KDDC 210100 AAA
TAFGCK
TAF AMD
KGCK 210105Z 2101/2124 16004KT P6SM -RA VCTS SCT045CB BKN090 BKN110
     FM210300 14009KT P6SM BKN150
     FM211500 01015G22KT P6SM SCT250=



000
FTUS43 KDDC 210000 AAA
TAFDDC
TAF AMD
KDDC 210058Z 2101/2124 16014KT P6SM VCTS SCT060CB
     FM210200 14009KT P6SM BKN150
     FM211500 01015G22KT P6SM SCT250=



000
FTUS43 KDDC 202300
TAFGCK
TAF
KGCK 202326Z 2100/2124 18011G19KT P6SM VCTS SCT090CB BKN110
     FM210300 14009KT P6SM BKN150
     FM211500 01015G22KT P6SM SCT250=



000
FTUS43 KDDC 202300
TAFHYS
TAF
KHYS 202326Z 2100/2124 15020G28KT P6SM FEW090
     FM210030 17013KT P6SM VCTS BKN040CB
     FM210330 14009KT P6SM BKN150
     FM211500 01015G22KT P6SM SCT250=



000
FTUS43 KDDC 202300
TAFDDC
TAF
KDDC 202326Z 2100/2124 15019G25KT P6SM VCTS SCT020CB SCT110
     FM210200 14009KT P6SM BKN150
     FM211500 01015G22KT P6SM SCT250=



000
FTUS43 KDDC 201700
TAFDDC
TAF
KDDC 201725Z 2018/2118 18015KT P6SM FEW250
     FM202230 17013KT P6SM VCTS BKN040CB
     FM210200 14009KT P6SM BKN150
     FM211500 01015G22KT P6SM SCT250=



000
FTUS43 KDDC 201700
TAFHYS
TAF
KHYS 201725Z 2018/2118 18015KT P6SM FEW250
     FM210030 17013KT P6SM VCTS BKN040CB
     FM210330 14009KT P6SM BKN150
     FM211500 01015G22KT P6SM SCT250=



000
FTUS43 KDDC 201700
TAFGCK
TAF
KGCK 201725Z 2018/2118 18015KT P6SM FEW250
     FM210000 17013KT P6SM VCTS BKN040CB
     FM210300 14009KT P6SM BKN150
     FM211500 01015G22KT P6SM SCT250=



    US Dept of Commerce
    National Oceanic and Atmospheric Administration
    National Weather Service
    1325 East West Highway
    Silver Spring, MD 20910
    Page Author: NWS Internet Services Team
Disclaimer
Information Quality
Credits
Glossary
Privacy Policy
Freedom of Information Act (FOIA)
About Us
Career Opportunities